METAR AND TAF INFORMATION
METAR FOR EPKT
ADDS - METARS form results

(2306 UTC 22 May 2018)
Data provider http://aviationweather.gov/adds/metars/
 
METAR text: EPKT 222300Z 10005KT 9999 -SHRA SCT040CB 15/13 Q1017
Conditions at: EPKT (KATOWICE/PYRZOWI, PL) observed 2300 UTC 22 May 2018
Temperature: 15.0°C (59°F)
Dewpoint: 13.0°C (55°F) [RH = 88%]
Pressure (altimeter): 30.03 inches Hg (1017.0 mb)
Winds: from the E (100 degrees) at 6 MPH (5 knots; 2.6 m/s)
Visibility: 6 or more miles (10+ km)
Ceiling: at least 12,000 feet AGL
Clouds: scattered clouds at 4000 feet AGL
Weather: -SHRA  (light rain showers)

METAR text: EPKT 222230Z 16007KT 9999 -SHRA FEW003 BKN040CB 16/13 Q1017
Conditions at: EPKT (KATOWICE/PYRZOWI, PL) observed 2230 UTC 22 May 2018
Temperature: 16.0°C (61°F)
Dewpoint: 13.0°C (55°F) [RH = 82%]
Pressure (altimeter): 30.03 inches Hg (1017.0 mb)
Winds: from the SSE (160 degrees) at 8 MPH (7 knots; 3.6 m/s)
Visibility: 6 or more miles (10+ km)
Ceiling: 4000 feet AGL
Clouds: few clouds at 300 feet AGL
broken clouds at 4000 feet AGL
Weather: -SHRA  (light rain showers)

Forecast for: EPKT (KATOWICE/PYRZOWI, PL)
Text: TAF EPKT 221730Z 2218/2318 VRB02KT CAVOK
Forecast period: 1800 UTC 22 May 2018 to 1000 UTC 23 May 2018
Forecast type: FROM: standard forecast or significant change
Winds: variable direction winds at 2 MPH (2 knots; 1.0 m/s)
Visibility: 6 or more miles (10+ km)
Clouds: not forecast
Weather: NSW  (no significant weather)
Text: PROB30
Forecast period: 0000 to 0600 UTC 23 May 2018
Forecast type: TEMPORARY: The following changes expected for less than half the time period
Visibility: 2.49 miles (4.01 km)
Ceiling: 4000 feet AGL
Clouds: broken clouds at 4000 feet AGL
Weather: SHRA  (rain showers)
Text: TEMPO 2300/2306 4000 SHRA BKN040CB
Forecast period: 1000 to 1800 UTC 23 May 2018
Forecast type: BECOMING: Conditions expected to become as follows by 1300 UTC 23 May 2018
Winds: from the E (80 degrees) at 12 MPH (10 knots; 5.2 m/s)
Visibility: 6 or more miles (10+ km)
Weather: NSW  (no significant weather)
Text: BECMG 2310/2313 08010KT
Forecast period: 1000 to 1800 UTC 23 May 2018
Forecast type: TEMPORARY: The following changes expected for less than half the time period
Winds: variable direction winds at 23 MPH (20 knots; 10.4 m/s)
gusting to 34 MPH (30 knots; 15.6 m/s)
Ceiling: 4000 feet AGL
Clouds: broken clouds at 4000 feet AGL
Weather: TSRA  (rain associated with thunderstorm(s))

 AIRPORT MAP

 RUNWAY INFORMATION
Runway 09 Runway length 9183 ft Runway width 195 ft
Runway elevation 970 ft Runway displaced threshold 0 ft Runway heading 90
Runway 27 Runway length 9183 ft Runway width 195 ft
Runway elevation 994 ft Runway displaced threshold 0 ft Runway heading 270

 AIRPORT FREQUENCIES
Type APP Name APP Frequency 121.075 MHZ
Type GCCD Name HANDLING Frequency 131.45 MHZ
Type TWR Name TWR Frequency 129.25 MHZ

 AIRPORT NEAR NAVIGATION AIDS
Type NDB Name Katowice Frequency 285 KHZ



Powered by Virtual Airlines Manager [v2.6.2]